Time;durP1;ratioP1;P1;durP2;ratioP2;P2;SDS_P1;SDS_P2;PMS_P1;PMS_P2;Temp;Humidity;BMP_temperature;BMP_pressure;BME280_temperature;BME280_humidity;BME280_pressure;Samples;Min_cycle;Max_cycle;Signal;HPM_P1;HPM_P2
2022/07/05 00:01:07;;;;;;;4.00;1.95;;;15.40;99.90;;;;;;4739069;30;20051;-74
2022/07/05 00:03:33;;;;;;;4.60;2.40;;;15.40;99.90;;;;;;4738154;30;20127;-74
2022/07/05 00:05:59;;;;;;;4.45;2.40;;;15.40;99.90;;;;;;4739125;30;20041;-74
2022/07/05 00:08:25;;;;;;;2.83;2.10;;;15.40;99.90;;;;;;4739158;30;20049;-74
2022/07/05 00:10:51;;;;;;;4.18;2.35;;;15.40;99.90;;;;;;4738785;30;20049;-74
2022/07/05 00:13:17;;;;;;;4.07;2.65;;;15.40;99.90;;;;;;4738280;30;20050;-74
2022/07/05 00:15:43;;;;;;;4.60;2.50;;;15.40;99.90;;;;;;4739119;30;20059;-74
2022/07/05 00:18:08;;;;;;;3.35;2.25;;;15.40;99.90;;;;;;4738836;30;20518;-74
2022/07/05 00:20:34;;;;;;;2.60;2.28;;;15.50;99.90;;;;;;4739021;30;20053;-74
2022/07/05 00:23:00;;;;;;;5.32;2.70;;;15.40;99.90;;;;;;4738669;30;20048;-74
2022/07/05 00:25:26;;;;;;;3.15;2.03;;;15.40;99.90;;;;;;4738641;30;20145;-74
2022/07/05 00:27:53;;;;;;;3.65;2.10;;;15.30;99.90;;;;;;4738857;30;20102;-74
2022/07/05 00:30:19;;;;;;;2.60;1.60;;;15.20;99.90;;;;;;4737621;30;20059;-74
2022/07/05 00:32:45;;;;;;;3.30;2.05;;;15.20;99.90;;;;;;4738825;30;20044;-74
2022/07/05 00:35:11;;;;;;;4.05;2.53;;;15.20;99.90;;;;;;4737530;30;20505;-74
2022/07/05 00:37:36;;;;;;;4.38;2.40;;;15.20;99.90;;;;;;4738817;30;20049;-74
2022/07/05 00:40:03;;;;;;;3.03;2.30;;;15.10;99.90;;;;;;4737528;30;20083;-74
2022/07/05 00:42:29;;;;;;;4.50;2.28;;;15.10;99.90;;;;;;4737057;30;20045;-74
2022/07/05 00:44:54;;;;;;;3.45;2.22;;;15.10;99.90;;;;;;4737305;30;20059;-74
2022/07/05 00:47:20;;;;;;;6.97;2.67;;;15.10;99.90;;;;;;4737983;30;20347;-74
2022/07/05 00:49:46;;;;;;;3.42;2.47;;;15.20;99.90;;;;;;4737652;30;20083;-74
2022/07/05 00:52:12;;;;;;;3.97;2.50;;;15.10;99.90;;;;;;4736772;30;20092;-75
2022/07/05 00:54:38;;;;;;;5.65;2.30;;;15.20;99.90;;;;;;4738535;30;20048;-74
2022/07/05 00:57:06;;;;;;;3.20;2.15;;;15.10;99.90;;;;;;4738326;30;20048;-74
2022/07/05 00:59:32;;;;;;;4.90;2.08;;;15.10;99.90;;;;;;4738527;30;20061;-74
2022/07/05 01:01:58;;;;;;;5.28;2.40;;;15.10;99.90;;;;;;4738310;30;20136;-74
2022/07/05 01:04:24;;;;;;;4.30;2.50;;;15.10;99.90;;;;;;4738418;30;20075;-74
2022/07/05 01:06:51;;;;;;;2.60;2.38;;;15.10;99.90;;;;;;4737372;30;20071;-74
2022/07/05 01:09:19;;;;;;;3.53;2.45;;;15.10;99.90;;;;;;4737414;30;20087;-74
2022/07/05 01:11:46;;;;;;;3.95;2.65;;;15.10;99.90;;;;;;4737750;30;20044;-74
2022/07/05 01:14:15;;;;;;;5.20;2.25;;;15.00;99.90;;;;;;4738296;30;20040;-74
2022/07/05 01:16:41;;;;;;;4.40;2.80;;;15.00;99.90;;;;;;4738166;30;20083;-74
2022/07/05 01:19:07;;;;;;;4.18;2.75;;;14.90;99.90;;;;;;4737714;30;20076;-74
2022/07/05 01:21:39;;;;;;;3.72;2.50;;;15.00;99.90;;;;;;4737137;30;20335;-74
2022/07/05 01:24:09;;;;;;;5.00;2.95;;;15.00;99.90;;;;;;4738070;30;20049;-74
2022/07/05 01:26:36;;;;;;;3.50;2.65;;;14.90;99.90;;;;;;4737276;30;20051;-74
2022/07/05 01:29:02;;;;;;;3.80;3.08;;;14.90;99.90;;;;;;4737886;30;20045;-74
2022/07/05 01:31:28;;;;;;;6.00;3.08;;;14.90;99.90;;;;;;4737873;30;20380;-75
2022/07/05 01:33:53;;;;;;;6.18;3.17;;;14.80;99.90;;;;;;4736616;30;20470;-74
2022/07/05 01:36:20;;;;;;;5.03;3.25;;;14.80;99.90;;;;;;4737660;30;20094;-74
2022/07/05 01:38:46;;;;;;;4.93;3.08;;;14.70;99.90;;;;;;4738156;30;20041;-74
2022/07/05 01:41:11;;;;;;;5.07;3.10;;;14.80;99.90;;;;;;4737521;30;20401;-75
2022/07/05 01:43:37;;;;;;;4.20;3.20;;;14.80;99.90;;;;;;4737746;30;20056;-74
2022/07/05 01:46:05;;;;;;;8.18;3.58;;;14.70;99.90;;;;;;4736851;30;20093;-74
2022/07/05 01:48:33;;;;;;;6.07;3.08;;;14.80;99.90;;;;;;4737792;30;20064;-74
2022/07/05 01:51:05;;;;;;;5.00;3.15;;;14.80;99.90;;;;;;4737606;30;20131;-73
2022/07/05 01:53:32;;;;;;;6.38;3.58;;;14.80;99.90;;;;;;4736106;30;20347;-74
2022/07/05 01:56:00;;;;;;;5.88;3.42;;;14.80;99.90;;;;;;4737444;30;20056;-74
2022/07/05 01:58:27;;;;;;;6.40;3.35;;;14.80;99.90;;;;;;4737250;30;20071;-75
2022/07/05 02:00:54;;;;;;;5.90;3.78;;;14.70;99.90;;;;;;4737593;30;20049;-74
2022/07/05 02:03:20;;;;;;;6.55;3.50;;;14.70;99.90;;;;;;4736527;30;20053;-74
2022/07/05 02:05:46;;;;;;;4.57;3.17;;;14.70;99.90;;;;;;4722091;30;20052;-74
2022/07/05 02:08:14;;;;;;;4.88;3.17;;;14.60;99.90;;;;;;4737707;30;20049;-74
2022/07/05 02:10:40;;;;;;;5.65;3.47;;;14.70;99.90;;;;;;4737561;30;20431;-74
2022/07/05 02:13:07;;;;;;;8.18;3.22;;;14.70;99.90;;;;;;4737204;30;20041;-76
2022/07/05 02:15:34;;;;;;;5.72;3.78;;;14.70;99.90;;;;;;4737853;30;20053;-74
2022/07/05 02:18:01;;;;;;;6.78;3.60;;;14.70;99.90;;;;;;4737453;30;20055;-74
2022/07/05 02:20:27;;;;;;;6.53;3.33;;;14.70;99.90;;;;;;4722080;30;20339;-74
2022/07/05 02:22:53;;;;;;;4.22;3.60;;;14.70;99.90;;;;;;4737701;30;20107;-74
2022/07/05 02:25:19;;;;;;;4.32;3.20;;;14.60;99.90;;;;;;4737592;30;20378;-74
2022/07/05 02:27:45;;;;;;;6.00;3.40;;;14.50;99.90;;;;;;4737368;30;20044;-74
2022/07/05 02:30:11;;;;;;;7.25;3.58;;;14.50;99.90;;;;;;4738380;30;20056;-74
2022/07/05 02:32:36;;;;;;;5.63;3.83;;;14.50;99.90;;;;;;4740944;30;20106;-74
2022/07/05 02:35:03;;;;;;;5.10;3.25;;;14.50;99.90;;;;;;4740702;30;20052;-74
2022/07/05 02:37:29;;;;;;;6.20;3.17;;;14.50;99.90;;;;;;4740548;30;20083;-74
2022/07/05 02:39:55;;;;;;;4.68;3.35;;;14.50;99.90;;;;;;4740474;30;20409;-74
2022/07/05 02:42:21;;;;;;;4.72;3.22;;;14.60;99.90;;;;;;4724435;30;20092;-74
2022/07/05 02:44:46;;;;;;;5.15;3.35;;;14.60;99.90;;;;;;4740750;30;20044;-74
2022/07/05 02:47:12;;;;;;;4.85;2.95;;;14.60;99.90;;;;;;4740550;30;20501;-74
2022/07/05 02:49:38;;;;;;;5.43;3.17;;;14.60;99.90;;;;;;4740339;30;20118;-74
2022/07/05 02:52:04;;;;;;;4.28;3.42;;;14.50;99.90;;;;;;4740379;30;20359;-74
2022/07/05 02:54:29;;;;;;;5.55;3.60;;;14.50;99.90;;;;;;4740317;30;20037;-74
2022/07/05 02:56:55;;;;;;;3.97;3.05;;;14.60;99.90;;;;;;4740132;30;20044;-74
2022/07/05 02:59:21;;;;;;;3.90;3.25;;;14.50;99.90;;;;;;4740387;30;20346;-74
2022/07/05 03:01:46;;;;;;;4.82;3.10;;;14.60;99.90;;;;;;4739240;30;20060;-74
2022/07/05 03:04:12;;;;;;;3.67;3.17;;;14.60;99.90;;;;;;4740041;30;20189;-74
2022/07/05 03:06:38;;;;;;;7.63;3.45;;;14.60;99.90;;;;;;4739316;30;20110;-74
2022/07/05 03:09:04;;;;;;;5.55;3.35;;;14.60;99.90;;;;;;4740059;30;20120;-74
2022/07/05 03:11:29;;;;;;;7.43;3.65;;;14.60;99.90;;;;;;4739539;30;20167;-74
2022/07/05 03:13:55;;;;;;;4.90;3.28;;;14.60;99.90;;;;;;4739960;30;20048;-74
2022/07/05 03:16:23;;;;;;;7.07;3.58;;;14.50;99.90;;;;;;4740224;30;20068;-74
2022/07/05 03:18:49;;;;;;;4.88;3.30;;;14.50;99.90;;;;;;4739950;30;20453;-74
2022/07/05 03:21:15;;;;;;;6.05;3.55;;;14.50;99.90;;;;;;4739960;30;20041;-74
2022/07/05 03:23:41;;;;;;;5.00;3.58;;;14.50;99.90;;;;;;4739526;30;20400;-74
2022/07/05 03:26:07;;;;;;;6.18;3.65;;;14.50;99.90;;;;;;4738629;30;20053;-74
2022/07/05 03:28:32;;;;;;;5.25;3.30;;;14.50;99.90;;;;;;4739936;30;20049;-74
2022/07/05 03:30:58;;;;;;;5.57;3.70;;;14.40;99.90;;;;;;4739788;30;20447;-74
2022/07/05 03:33:24;;;;;;;7.22;3.95;;;14.40;99.90;;;;;;4739862;30;20044;-74
2022/07/05 03:35:50;;;;;;;4.82;4.15;;;14.40;99.90;;;;;;4739538;30;20106;-74
2022/07/05 03:38:16;;;;;;;6.00;3.97;;;14.40;99.90;;;;;;4739594;30;20082;-74
2022/07/05 03:40:41;;;;;;;8.02;3.90;;;14.30;99.90;;;;;;4739010;30;20076;-74
2022/07/05 03:43:07;;;;;;;5.78;3.50;;;14.40;99.90;;;;;;4739187;30;20137;-74
2022/07/05 03:45:33;;;;;;;7.25;3.90;;;14.30;99.90;;;;;;4739598;30;20041;-74
2022/07/05 03:48:00;;;;;;;4.55;3.65;;;14.30;99.90;;;;;;4723724;30;20101;-74
2022/07/05 03:50:26;;;;;;;4.45;3.55;;;14.30;99.90;;;;;;4739199;30;20056;-74
2022/07/05 03:52:51;;;;;;;14.82;3.78;;;14.30;99.90;;;;;;4739402;30;20048;-74
2022/07/05 03:55:17;;;;;;;5.95;3.80;;;14.30;99.90;;;;;;4738711;30;20497;-74
2022/07/05 03:57:43;;;;;;;6.85;3.50;;;14.30;99.90;;;;;;4738596;30;20119;-74
2022/07/05 04:00:09;;;;;;;5.95;3.70;;;14.40;99.90;;;;;;4737746;30;20451;-74
2022/07/05 04:02:35;;;;;;;6.10;3.88;;;14.40;99.90;;;;;;4739014;30;20052;-74
2022/07/05 04:05:01;;;;;;;5.88;4.28;;;14.50;99.90;;;;;;4723501;30;20048;-74
2022/07/05 04:07:27;;;;;;;4.28;3.70;;;14.50;99.90;;;;;;4739005;30;20052;-74
2022/07/05 04:09:53;;;;;;;6.38;4.22;;;14.50;99.90;;;;;;4739079;30;20041;-74
2022/07/05 04:12:18;;;;;;;7.70;4.00;;;14.50;99.90;;;;;;4723125;30;20458;-74
2022/07/05 04:14:44;;;;;;;4.65;3.75;;;14.60;99.90;;;;;;4739044;30;20055;-74
2022/07/05 04:17:10;;;;;;;5.78;3.70;;;14.70;99.90;;;;;;4738875;30;20052;-74
2022/07/05 04:19:35;;;;;;;6.65;3.80;;;14.70;99.90;;;;;;4737712;30;20091;-74
2022/07/05 04:22:01;;;;;;;4.35;3.88;;;14.70;99.90;;;;;;4737816;30;20051;-74
2022/07/05 04:24:27;;;;;;;5.90;4.00;;;14.80;99.90;;;;;;4732978;30;20103;-74
2022/07/05 04:26:53;;;;;;;5.32;4.00;;;14.80;99.90;;;;;;4735360;30;20080;-75
2022/07/05 04:29:18;;;;;;;7.88;4.07;;;14.80;99.90;;;;;;4738386;30;20335;-74
2022/07/05 04:31:44;;;;;;;5.93;4.45;;;15.00;99.90;;;;;;4738624;30;20544;-74
2022/07/05 04:34:10;;;;;;;7.03;4.30;;;15.10;99.90;;;;;;4738769;30;20436;-74
2022/07/05 04:36:36;;;;;;;7.97;4.72;;;15.20;99.90;;;;;;4738624;30;20558;-74
2022/07/05 04:39:03;;;;;;;5.80;3.97;;;15.40;99.90;;;;;;4738507;30;20446;-75
2022/07/05 04:41:29;;;;;;;5.45;4.07;;;15.50;99.90;;;;;;4738037;30;20056;-74
2022/07/05 04:43:55;;;;;;;6.35;3.97;;;15.60;99.90;;;;;;4737309;30;20056;-74
2022/07/05 04:46:20;;;;;;;7.00;4.20;;;15.80;99.90;;;;;;4738739;30;20045;-74
2022/07/05 04:48:46;;;;;;;7.15;4.32;;;16.00;99.90;;;;;;4738216;30;20064;-74
2022/07/05 04:51:12;;;;;;;5.82;3.53;;;16.10;99.90;;;;;;4738386;30;20056;-74
2022/07/05 04:53:38;;;;;;;6.60;3.88;;;16.30;99.90;;;;;;4736421;30;20052;-75
2022/07/05 04:56:05;;;;;;;6.85;3.40;;;16.40;99.90;;;;;;4738214;30;20049;-74
2022/07/05 04:58:30;;;;;;;6.47;3.70;;;16.50;99.90;;;;;;4738064;30;20095;-74
2022/07/05 05:00:56;;;;;;;8.50;4.25;;;16.60;99.90;;;;;;4738455;30;20380;-74
2022/07/05 05:03:22;;;;;;;4.95;3.60;;;16.80;99.90;;;;;;4738131;30;20103;-74
2022/07/05 05:05:48;;;;;;;7.57;3.88;;;16.90;99.90;;;;;;4738307;30;20119;-74
2022/07/05 05:08:13;;;;;;;5.30;3.63;;;17.10;99.90;;;;;;4738204;30;20045;-74
2022/07/05 05:10:39;;;;;;;6.70;4.00;;;17.20;99.90;;;;;;4737918;30;20044;-74
2022/07/05 05:13:04;;;;;;;5.10;3.25;;;17.20;99.90;;;;;;4737085;30;20044;-74
2022/07/05 05:15:33;;;;;;;4.25;3.00;;;17.20;99.90;;;;;;4722805;30;20122;-74
2022/07/05 05:17:58;;;;;;;5.35;3.40;;;17.30;99.90;;;;;;4738359;30;20057;-74
2022/07/05 05:20:25;;;;;;;3.45;2.60;;;17.30;99.90;;;;;;4737990;30;20356;-74
2022/07/05 05:22:50;;;;;;;5.57;3.13;;;17.40;99.90;;;;;;4737838;30;20096;-74
2022/07/05 05:25:16;;;;;;;5.90;3.97;;;17.50;99.90;;;;;;4738085;30;20070;-74
2022/07/05 05:27:47;;;;;;;4.63;3.10;;;17.50;99.90;;;;;;4737984;30;20075;-74
2022/07/05 05:30:14;;;;;;;5.68;3.35;;;17.50;99.90;;;;;;4737709;30;20045;-74
2022/07/05 05:32:40;;;;;;;5.55;3.30;;;17.40;99.90;;;;;;4737708;30;20048;-75
2022/07/05 05:35:06;;;;;;;3.53;2.53;;;17.40;99.90;;;;;;4738048;30;20131;-74
2022/07/05 05:37:48;;;;;;;8.25;3.55;;;17.30;99.90;;;;;;4736812;30;20048;-75
2022/07/05 05:40:14;;;;;;;4.18;3.42;;;17.30;99.90;;;;;;4738085;30;20123;-74
2022/07/05 05:42:40;;;;;;;3.70;3.13;;;17.40;99.90;;;;;;4736427;30;20178;-74
2022/07/05 05:45:06;;;;;;;6.22;3.13;;;17.40;99.90;;;;;;4737783;30;20051;-74
2022/07/05 05:47:32;;;;;;;4.45;3.08;;;17.50;99.90;;;;;;4722593;30;20045;-74
2022/07/05 05:49:57;;;;;;;6.90;2.88;;;17.60;99.90;;;;;;4736393;30;20067;-74
2022/07/05 05:52:23;;;;;;;6.30;2.58;;;17.70;99.90;;;;;;4738047;30;20059;-74
2022/07/05 05:54:49;;;;;;;5.53;2.75;;;17.80;99.90;;;;;;4737702;30;20049;-74
2022/07/05 05:57:14;;;;;;;6.22;2.70;;;17.80;99.90;;;;;;4737970;30;20053;-74
2022/07/05 05:59:40;;;;;;;5.70;2.45;;;17.50;99.90;;;;;;4736660;30;20348;-74
2022/07/05 06:02:06;;;;;;;5.25;2.67;;;17.40;99.90;;;;;;4737578;30;20063;-74
2022/07/05 06:04:31;;;;;;;4.68;2.30;;;17.50;99.90;;;;;;4739112;30;20120;-74
2022/07/05 06:06:57;;;;;;;5.22;2.28;;;17.60;99.90;;;;;;4740274;30;20045;-74
2022/07/05 06:09:23;;;;;;;4.50;2.30;;;17.70;99.90;;;;;;4741339;30;20127;-74
2022/07/05 06:11:48;;;;;;;9.35;2.60;;;18.10;99.90;;;;;;4740719;30;20048;-74
2022/07/05 06:14:14;;;;;;;5.68;2.38;;;18.00;99.90;;;;;;4740137;30;20057;-74
2022/07/05 06:16:39;;;;;;;4.93;2.42;;;18.00;99.90;;;;;;4740969;30;20047;-74
2022/07/05 06:19:05;;;;;;;7.15;2.35;;;18.00;99.90;;;;;;4740993;30;20044;-75
2022/07/05 06:21:31;;;;;;;5.43;2.00;;;17.90;99.90;;;;;;4739788;30;20041;-74
2022/07/05 06:23:56;;;;;;;3.55;2.03;;;17.90;99.90;;;;;;4740877;30;20136;-74
2022/07/05 06:26:22;;;;;;;3.78;1.90;;;18.00;99.90;;;;;;4740154;30;20414;-74
2022/07/05 06:28:49;;;;;;;4.90;1.80;;;18.00;99.90;;;;;;4740850;30;20044;-74
2022/07/05 06:31:15;;;;;;;4.25;1.70;;;18.20;99.90;;;;;;4740812;30;20045;-74
2022/07/05 06:33:41;;;;;;;6.05;1.70;;;18.20;99.90;;;;;;4740554;30;20109;-75
2022/07/05 06:36:06;;;;;;;4.85;1.52;;;18.30;99.90;;;;;;4740870;30;20044;-74
2022/07/05 06:38:32;;;;;;;6.18;1.40;;;18.20;99.90;;;;;;4740866;30;20463;-75
2022/07/05 06:40:59;;;;;;;7.72;1.27;;;18.30;99.90;;;;;;4740740;30;20055;-74
2022/07/05 06:43:25;;;;;;;3.95;1.02;;;18.30;99.90;;;;;;4739119;30;20053;-74
2022/07/05 06:45:51;;;;;;;4.25;1.13;;;18.40;99.90;;;;;;4740452;30;20048;-74
2022/07/05 06:48:17;;;;;;;3.28;0.73;;;18.40;99.90;;;;;;4740227;30;20037;-74
2022/07/05 06:50:43;;;;;;;3.97;0.95;;;18.60;99.90;;;;;;4739560;30;20053;-74
2022/07/05 06:53:12;;;;;;;7.00;1.05;;;18.50;99.90;;;;;;4740593;30;20048;-74
2022/07/05 06:55:44;;;;;;;6.72;1.00;;;18.40;99.90;;;;;;4740416;30;20095;-74
2022/07/05 06:58:10;;;;;;;4.20;1.00;;;18.40;99.90;;;;;;4740297;30;20524;-74
2022/07/05 07:00:36;;;;;;;7.55;0.90;;;18.30;99.90;;;;;;4740235;30;20132;-74
2022/07/05 07:03:01;;;;;;;4.88;0.80;;;18.30;99.90;;;;;;4740075;30;20495;-75
2022/07/05 07:05:27;;;;;;;4.05;0.80;;;18.40;99.90;;;;;;4724612;30;20126;-74
2022/07/05 07:10:38;;;;;;;2.67;0.50;;;18.70;99.90;;;;;;4740432;30;20343;-74
2022/07/05 07:13:04;;;;;;;5.28;1.48;;;18.80;99.90;;;;;;4739611;30;20347;-74
2022/07/05 07:15:30;;;;;;;4.80;0.60;;;18.60;99.90;;;;;;4739501;30;20084;-74
2022/07/05 07:17:57;;;;;;;3.63;0.50;;;18.70;99.90;;;;;;4739922;30;20427;-74
2022/07/05 07:20:23;;;;;;;4.65;0.65;;;18.70;99.90;;;;;;4740006;30;20071;-74
2022/07/05 07:22:48;;;;;;;3.65;0.60;;;18.70;99.90;;;;;;4739849;30;20095;-74
2022/07/05 07:25:14;;;;;;;3.97;0.43;;;18.80;99.90;;;;;;4740006;30;20076;-74
2022/07/05 07:27:53;;;;;;;2.92;0.90;;;18.80;99.90;;;;;;4738923;30;20343;-74
2022/07/05 07:30:22;;;;;;;5.47;0.70;;;18.90;99.90;;;;;;4738960;30;20044;-74
2022/07/05 07:32:48;;;;;;;3.70;0.60;;;18.90;99.90;;;;;;4739860;30;20048;-74
2022/07/05 07:35:14;;;;;;;3.03;0.70;;;19.00;99.90;;;;;;4739738;30;20052;-74
2022/07/05 07:37:40;;;;;;;3.88;0.90;;;18.90;99.90;;;;;;4739827;30;20068;-74
2022/07/05 07:40:06;;;;;;;4.65;0.50;;;18.80;99.90;;;;;;4739548;30;20389;-74
2022/07/05 07:42:33;;;;;;;3.95;0.60;;;18.80;99.90;;;;;;4739172;30;20462;-75
2022/07/05 07:44:59;;;;;;;5.80;0.55;;;18.80;99.90;;;;;;4724147;30;20200;-82
2022/07/05 07:47:24;;;;;;;5.20;0.60;;;18.90;99.90;;;;;;4709578;30;20413;-74
2022/07/05 07:49:50;;;;;;;7.75;0.70;;;18.80;99.90;;;;;;4740846;30;20144;-75
2022/07/05 07:52:16;;;;;;;4.40;0.55;;;18.80;99.90;;;;;;4744306;30;20099;-73
2022/07/05 07:54:42;;;;;;;3.30;0.90;;;18.90;99.90;;;;;;4738613;30;20052;-74
2022/07/05 07:57:07;;;;;;;7.32;0.60;;;19.10;99.90;;;;;;4738113;30;20063;-74
2022/07/05 07:59:34;;;;;;;2.17;0.50;;;19.10;99.90;;;;;;4739446;30;20048;-73
2022/07/05 08:02:00;;;;;;;5.63;0.82;;;19.10;99.90;;;;;;4738250;30;20335;-74
2022/07/05 08:04:26;;;;;;;5.68;0.65;;;19.20;99.90;;;;;;4739337;30;20044;-76
2022/07/05 08:06:52;;;;;;;5.22;0.47;;;19.10;99.90;;;;;;4739100;30;20442;-74
2022/07/05 08:09:18;;;;;;;4.07;0.55;;;19.00;99.90;;;;;;4737976;30;20048;-74
2022/07/05 08:11:45;;;;;;;5.57;0.80;;;19.20;99.90;;;;;;4738584;30;20052;-74
2022/07/05 08:14:11;;;;;;;3.97;0.57;;;19.30;99.90;;;;;;4737946;30;20052;-73
2022/07/05 08:16:37;;;;;;;5.03;0.80;;;19.30;99.90;;;;;;4739103;30;20059;-74
2022/07/05 08:21:47;;;;;;;3.30;0.70;;;19.70;99.90;;;;;;4738966;30;20355;-73
2022/07/05 08:24:14;;;;;;;5.32;1.27;;;19.70;99.90;;;;;;4738203;30;20041;-74
2022/07/05 08:26:40;;;;;;;5.03;0.75;;;19.70;99.90;;;;;;4738827;30;20052;-74
2022/07/05 08:29:11;;;;;;;3.45;0.80;;;19.80;99.90;;;;;;4737029;30;20059;-73
2022/07/05 08:31:49;;;;;;;5.38;0.77;;;19.80;99.90;;;;;;4738938;30;20051;-73
2022/07/05 08:34:17;;;;;;;2.50;0.40;;;20.00;99.90;;;;;;4723261;30;20423;-74
2022/07/05 08:36:43;;;;;;;4.47;0.95;;;20.20;99.90;;;;;;4737495;30;20063;-74
2022/07/05 08:39:09;;;;;;;5.53;0.50;;;20.50;99.90;;;;;;4738556;30;20044;-75
2022/07/05 08:41:40;;;;;;;3.83;0.93;;;20.10;99.90;;;;;;4738646;30;20053;-77
2022/07/05 08:44:06;;;;;;;7.22;0.82;;;19.70;99.90;;;;;;4723754;30;20186;-76
2022/07/05 08:46:36;;;;;;;4.32;0.93;;;19.50;99.90;;;;;;4738646;30;20040;-76
2022/07/05 08:49:06;;;;;;;3.70;0.70;;;19.70;99.90;;;;;;4738206;30;20143;-77
2022/07/05 08:51:38;;;;;;;4.45;0.60;;;19.80;99.90;;;;;;4738411;30;20055;-76
2022/07/05 08:54:05;;;;;;;5.75;0.70;;;20.10;99.90;;;;;;4738405;30;20053;-78
2022/07/05 08:56:30;;;;;;;1.70;0.50;;;20.60;99.90;;;;;;4737758;30;20328;-77
2022/07/05 08:58:56;;;;;;;13.88;0.90;;;21.00;99.90;;;;;;4738290;30;20044;-78
2022/07/05 09:01:24;;;;;;;1.30;0.40;;;21.30;99.90;;;;;;4722704;30;20048;-77
2022/07/05 09:03:52;;;;;;;5.97;0.70;;;21.40;99.90;;;;;;4738338;30;20135;-74
2022/07/05 09:06:21;;;;;;;3.47;0.70;;;20.90;99.90;;;;;;4738405;30;20398;-75
2022/07/05 09:08:48;;;;;;;4.03;0.68;;;20.80;99.90;;;;;;4737267;30;20080;-75
2022/07/05 09:11:15;;;;;;;7.63;0.70;;;20.80;99.90;;;;;;4737102;30;20059;-75
2022/07/05 09:13:47;;;;;;;3.20;0.50;;;20.30;99.90;;;;;;4737873;30;20056;-74
2022/07/05 09:16:13;;;;;;;6.90;0.88;;;20.50;99.90;;;;;;4738092;30;20127;-74
2022/07/05 09:18:44;;;;;;;4.35;0.50;;;20.20;99.80;;;;;;4737869;30;20143;-76
2022/07/05 09:21:27;;;;;;;3.03;0.70;;;20.10;99.90;;;;;;4738275;30;20049;-75
2022/07/05 09:24:05;;;;;;;2.25;0.60;;;20.40;99.90;;;;;;4736816;30;20044;-83
2022/07/05 09:26:41;;;;;;;5.55;0.70;;;20.60;99.90;;;;;;4722752;30;20131;-77
2022/07/05 09:29:09;;;;;;;4.80;0.60;;;20.90;99.90;;;;;;4736863;30;20049;-75
2022/07/05 09:31:37;;;;;;;2.95;0.50;;;21.10;99.90;;;;;;4737829;30;20132;-77
2022/07/05 09:34:05;;;;;;;3.60;0.50;;;21.30;99.90;;;;;;4737938;30;20102;-76
2022/07/05 09:36:49;;;;;;;3.50;0.45;;;20.90;99.90;;;;;;4737073;30;20056;-76
2022/07/05 09:39:15;;;;;;;7.05;0.82;;;20.70;99.90;;;;;;4739080;30;20049;-76
2022/07/05 09:41:41;;;;;;;3.08;0.50;;;20.40;99.90;;;;;;4740195;30;20052;-78
2022/07/05 09:44:07;;;;;;;2.85;0.50;;;20.30;99.90;;;;;;4740517;30;20055;-76
2022/07/05 09:46:33;;;;;;;3.30;0.63;;;20.50;99.90;;;;;;4725837;30;20066;-76
2022/07/05 09:48:59;;;;;;;6.07;0.80;;;20.30;99.90;;;;;;4737285;30;20064;-77
2022/07/05 09:51:25;;;;;;;2.47;0.60;;;20.30;99.90;;;;;;4726492;30;20041;-78
2022/07/05 09:53:56;;;;;;;2.58;0.60;;;20.20;99.90;;;;;;4722836;30;20062;-76
2022/07/05 09:56:23;;;;;;;6.22;1.42;;;20.10;99.90;;;;;;4723853;30;20068;-77
2022/07/05 09:58:49;;;;;;;4.82;0.60;;;19.80;99.90;;;;;;4724758;30;20053;-79
2022/07/05 10:01:32;;;;;;;8.55;1.27;;;19.70;99.90;;;;;;4724071;30;20049;-77
2022/07/05 10:04:02;;;;;;;4.68;0.50;;;19.50;99.90;;;;;;4730072;30;20073;-77
2022/07/05 10:06:31;;;;;;;2.78;0.60;;;19.70;99.90;;;;;;4740737;30;20048;-76
2022/07/05 10:08:57;;;;;;;4.43;0.50;;;19.80;99.90;;;;;;4740061;30;20045;-75
2022/07/05 10:11:26;;;;;;;3.25;1.23;;;20.10;99.90;;;;;;4711239;30;20049;-69
2022/07/05 10:13:53;;;;;;;2.67;0.40;;;20.30;99.90;;;;;;4740949;30;20129;-76
2022/07/05 10:16:21;;;;;;;3.85;0.70;;;20.40;99.90;;;;;;4740140;30;20351;-75
2022/07/05 10:18:51;;;;;;;2.78;0.50;;;20.00;99.60;;;;;;4741082;30;20037;-75
2022/07/05 10:21:17;;;;;;;3.65;0.77;;;19.80;99.80;;;;;;4741494;30;20443;-75
2022/07/05 10:23:53;;;;;;;2.90;0.60;;;19.70;99.90;;;;;;4740837;30;20080;-73
2022/07/05 10:26:20;;;;;;;2.13;0.60;;;19.60;99.90;;;;;;4741113;30;20049;-76
2022/07/05 10:28:49;;;;;;;2.25;0.60;;;20.10;99.90;;;;;;4739728;30;20056;-80
2022/07/05 10:31:16;;;;;;;3.92;0.60;;;20.50;99.90;;;;;;4739954;30;20110;-71
2022/07/05 10:33:42;;;;;;;5.78;0.70;;;21.30;99.90;;;;;;4737822;30;20055;-75
2022/07/05 10:36:11;;;;;;;4.35;0.60;;;21.60;99.60;;;;;;4726097;30;20052;-75
2022/07/05 10:38:40;;;;;;;4.68;0.68;;;21.30;99.10;;;;;;4737710;30;20048;-74
2022/07/05 10:41:08;;;;;;;3.47;0.68;;;21.00;99.30;;;;;;4727227;30;20044;-75
2022/07/05 10:43:34;;;;;;;5.22;0.50;;;21.30;99.70;;;;;;4726232;30;20045;-75
2022/07/05 10:46:02;;;;;;;2.72;0.60;;;21.40;99.60;;;;;;4721371;30;20070;-75
2022/07/05 10:48:28;;;;;;;3.33;0.70;;;21.40;99.60;;;;;;4722570;30;20080;-75
2022/07/05 10:50:55;;;;;;;4.90;0.70;;;21.30;99.80;;;;;;4722067;30;20115;-74
2022/07/05 10:53:26;;;;;;;2.75;0.60;;;21.40;99.60;;;;;;4723139;30;20123;-74
2022/07/05 10:55:56;;;;;;;6.60;0.90;;;21.60;99.60;;;;;;4722869;30;20041;-74
2022/07/05 10:58:23;;;;;;;1.65;0.55;;;21.40;99.50;;;;;;4721896;30;20052;-75
2022/07/05 11:01:12;;;;;;;3.38;0.60;;;21.50;99.40;;;;;;4722643;30;20049;-75
2022/07/05 11:03:55;;;;;;;5.20;0.85;;;21.60;99.20;;;;;;4707282;30;20061;-75
2022/07/05 11:06:28;;;;;;;6.35;0.82;;;21.60;98.90;;;;;;4722702;30;20324;-75
2022/07/05 11:08:59;;;;;;;3.95;0.70;;;21.90;99.50;;;;;;4721632;30;20400;-76
2022/07/05 11:11:29;;;;;;;2.75;0.52;;;22.40;99.10;;;;;;4721442;30;20061;-76
2022/07/05 11:13:58;;;;;;;5.78;1.38;;;21.80;99.10;;;;;;4722191;30;20045;-75
2022/07/05 11:16:24;;;;;;;2.58;0.57;;;21.70;99.30;;;;;;4722422;30;20045;-75
2022/07/05 11:18:52;;;;;;;3.72;0.68;;;21.50;99.20;;;;;;4722714;30;20057;-75
2022/07/05 11:21:22;;;;;;;2.58;0.60;;;21.30;99.20;;;;;;4721453;30;20448;-75
2022/07/05 11:23:48;;;;;;;2.95;0.80;;;21.20;99.10;;;;;;4736021;30;20061;-75
2022/07/05 11:26:18;;;;;;;1.58;0.50;;;21.20;99.40;;;;;;4722343;30;20052;-75
2022/07/05 11:28:45;;;;;;;2.38;0.40;;;21.20;99.60;;;;;;4722664;30;20124;-75
2022/07/05 11:31:11;;;;;;;6.28;0.50;;;21.70;99.40;;;;;;4722240;30;20053;-74
2022/07/05 11:33:44;;;;;;;1.88;0.40;;;22.20;98.80;;;;;;4722225;30;20106;-76
2022/07/05 11:36:27;;;;;;;5.68;0.82;;;22.30;99.20;;;;;;4735535;30;20053;-80
2022/07/05 11:39:15;;;;;;;1.50;0.40;;;22.50;99.40;;;;;;4721397;30;20432;-73
2022/07/05 11:41:46;;;;;;;3.78;0.60;;;22.80;99.00;;;;;;4735675;30;20091;-72
2022/07/05 11:44:12;;;;;;;6.35;0.70;;;23.00;98.70;;;;;;4721850;30;20049;-76
2022/07/05 11:46:40;;;;;;;1.48;0.30;;;23.10;98.40;;;;;;4735592;30;20056;-75
2022/07/05 11:49:05;;;;;;;5.03;0.60;;;23.40;98.80;;;;;;4721906;30;20049;-75
2022/07/05 11:51:31;;;;;;;3.17;0.47;;;23.70;98.40;;;;;;4722061;30;20045;-74
2022/07/05 11:53:57;;;;;;;6.07;0.70;;;23.70;98.10;;;;;;4722094;30;20131;-75
2022/07/05 11:56:23;;;;;;;3.20;0.50;;;23.50;98.20;;;;;;4721954;30;20057;-77
2022/07/05 11:58:49;;;;;;;3.22;0.40;;;23.70;98.30;;;;;;4721920;30;20108;-77
2022/07/05 12:01:16;;;;;;;4.97;0.50;;;23.10;98.00;;;;;;4735169;30;20053;-76
2022/07/05 12:03:52;;;;;;;2.55;0.52;;;23.30;98.70;;;;;;4720599;30;20107;-76
2022/07/05 12:06:20;;;;;;;3.60;0.52;;;23.40;98.00;;;;;;4722120;30;20128;-76
2022/07/05 12:08:46;;;;;;;1.92;0.38;;;23.00;98.00;;;;;;4721608;30;20057;-77
2022/07/05 12:13:57;;;;;;;2.45;0.50;;;23.10;98.20;;;;;;4721136;30;20352;-76
2022/07/05 12:16:25;;;;;;;2.90;0.63;;;22.70;98.30;;;;;;4725521;30;20049;-77
2022/07/05 12:18:56;;;;;;;5.93;0.85;;;22.10;99.30;;;;;;4721517;30;20125;-78
2022/07/05 12:21:25;;;;;;;6.00;1.25;;;21.30;99.90;;;;;;4720694;30;20057;-74
2022/07/05 12:23:51;;;;;;;4.40;0.70;;;20.90;99.80;;;;;;4721458;30;20049;-76
2022/07/05 12:26:18;;;;;;;12.32;1.15;;;20.70;99.90;;;;;;4706119;30;20099;-77
2022/07/05 12:28:45;;;;;;;5.47;0.80;;;20.30;99.90;;;;;;4720595;30;20057;-77
2022/07/05 12:31:22;;;;;;;5.43;1.00;;;20.20;99.90;;;;;;4721272;30;20062;-77
2022/07/05 12:33:49;;;;;;;3.97;0.70;;;20.20;99.90;;;;;;4720229;30;20053;-77
2022/07/05 12:36:23;;;;;;;5.00;0.98;;;20.40;99.90;;;;;;4721152;30;20107;-77
2022/07/05 12:38:49;;;;;;;8.50;0.90;;;20.30;99.90;;;;;;4721239;30;20080;-77
2022/07/05 12:41:22;;;;;;;6.05;0.73;;;20.40;99.90;;;;;;4721121;30;20075;-76
2022/07/05 12:43:49;;;;;;;7.63;0.70;;;20.50;99.90;;;;;;4719649;30;20056;-77
2022/07/05 12:46:15;;;;;;;4.45;0.60;;;20.70;99.90;;;;;;4720067;30;20056;-77
2022/07/05 12:48:40;;;;;;;2.28;0.65;;;20.50;99.90;;;;;;4720777;30;20045;-76
2022/07/05 12:51:08;;;;;;;4.03;0.50;;;20.70;99.90;;;;;;4719946;30;20065;-77
2022/07/05 12:59:09;;;;;;;2.35;0.65;;;21.20;99.90;;;;;;4720126;30;20061;-77